Time;durP1;ratioP1;P1;durP2;ratioP2;P2;SDS_P1;SDS_P2;PMS_P1;PMS_P2;Temp;Humidity;BMP_temperature;BMP_pressure;BME280_temperature;BME280_humidity;BME280_pressure;Samples;Min_cycle;Max_cycle;Signal;HPM_P1;HPM_P2
2022/09/02 00:01:30;;;;;;;3.15;2.63;;;;;;;14.15;82.78;99050.28;5109432;28;20134;-86
2022/09/02 00:03:59;;;;;;;3.05;2.40;;;;;;;14.05;83.68;99040.81;5110247;28;20075;-85
2022/09/02 00:06:26;;;;;;;3.03;2.65;;;;;;;13.96;84.16;99042.91;5108386;27;20044;-85
2022/09/02 00:08:53;;;;;;;5.00;2.65;;;;;;;13.96;84.48;99046.47;5110827;28;20054;-86
2022/09/02 00:11:24;;;;;;;4.72;2.58;;;;;;;13.83;84.75;99026.50;5092517;28;20043;-86
2022/09/02 00:13:51;;;;;;;;;;;;;;;13.85;84.78;99049.00;5109673;28;20127;-86
2022/09/02 00:16:22;;;;;;;2.90;2.60;;;;;;;13.59;84.97;99023.31;5110850;28;19960;-86
2022/09/02 00:18:50;;;;;;;3.92;2.45;;;;;;;13.64;85.67;99045.41;5111096;28;20786;-86
2022/09/02 00:21:18;;;;;;;2.72;2.40;;;;;;;13.54;86.73;99039.50;5110746;28;20059;-86
2022/09/02 00:23:46;;;;;;;4.13;2.40;;;;;;;13.58;85.91;99036.16;5110308;27;20052;-86
2022/09/02 00:26:13;;;;;;;3.90;2.53;;;;;;;13.63;85.45;99033.63;5110484;28;20044;-85
2022/09/02 00:28:41;;;;;;;6.75;3.42;;;;;;;13.48;86.16;99013.03;5109739;28;20058;-86
2022/09/02 00:31:08;;;;;;;7.55;2.88;;;;;;;13.36;86.81;99008.16;5111000;28;20074;-86
2022/09/02 00:33:36;;;;;;;3.75;2.60;;;;;;;13.54;86.58;99034.03;5109885;28;20475;-86
2022/09/02 00:36:04;;;;;;;5.00;2.58;;;;;;;13.51;86.60;99029.00;5110937;28;20481;-86
2022/09/02 00:38:33;;;;;;;4.18;2.80;;;;;;;13.23;87.95;99021.75;5110364;28;20051;-86
2022/09/02 00:41:01;;;;;;;6.25;2.30;;;;;;;13.15;89.13;99030.97;5112443;28;20493;-85
2022/09/02 00:43:41;;;;;;;4.22;3.03;;;;;;;13.02;89.62;99011.81;5113241;28;20042;-86
2022/09/02 00:46:08;;;;;;;2.75;2.40;;;;;;;12.99;90.12;99009.50;5114002;28;20406;-85
2022/09/02 00:48:40;;;;;;;5.22;3.08;;;;;;;12.74;91.80;98996.41;5114032;28;20290;-86
2022/09/02 00:51:07;;;;;;;4.60;2.72;;;;;;;12.93;90.77;99016.59;5114224;28;20475;-86
2022/09/02 00:53:38;;;;;;;5.90;2.88;;;;;;;13.00;90.96;99019.38;5113570;27;20051;-85
2022/09/02 00:56:09;;;;;;;5.75;3.03;;;;;;;12.77;92.69;99004.16;5112866;28;20058;-86
2022/09/02 00:58:38;;;;;;;3.42;2.78;;;;;;;12.93;92.55;99014.75;5112790;28;20150;-86
2022/09/02 01:01:05;;;;;;;3.30;2.65;;;;;;;13.04;92.51;99024.22;5113716;28;20376;-86
2022/09/02 01:03:33;;;;;;;3.38;2.53;;;;;;;12.91;91.74;99019.53;5112940;28;20051;-86
2022/09/02 01:06:02;;;;;;;2.78;2.28;;;;;;;12.75;91.60;98993.47;5112390;28;20450;-85
2022/09/02 01:08:35;;;;;;;3.70;2.72;;;;;;;12.71;90.92;99000.38;5113679;28;20063;-86
2022/09/02 01:11:05;;;;;;;2.85;2.50;;;;;;;12.72;91.27;99021.16;5113502;28;20058;-86
2022/09/02 01:13:36;;;;;;;2.95;2.40;;;;;;;12.67;92.28;99006.44;5112959;28;20127;-86
2022/09/02 01:16:19;;;;;;;3.60;2.60;;;;;;;12.82;93.15;99011.75;5113726;28;20050;-85
2022/09/02 01:18:51;;;;;;;4.00;2.90;;;;;;;12.79;93.18;98996.63;5113644;28;20061;-86
2022/09/02 01:21:19;;;;;;;3.88;2.63;;;;;;;12.87;93.07;99009.22;5113816;28;20036;-86
2022/09/02 01:23:48;;;;;;;6.07;3.00;;;;;;;12.87;93.48;99011.97;5111481;27;20054;-85
2022/09/02 01:26:15;;;;;;;3.60;2.55;;;;;;;12.88;93.36;99000.84;5113339;28;20043;-86
2022/09/02 01:28:42;;;;;;;8.18;3.03;;;;;;;13.02;92.11;99018.13;5113377;28;20100;-86
2022/09/02 01:31:09;;;;;;;6.40;2.58;;;;;;;12.95;91.22;98997.28;5113695;27;20375;-86
2022/09/02 01:33:36;;;;;;;7.07;2.67;;;;;;;12.96;91.79;99010.72;5112874;28;20051;-86
2022/09/02 01:36:05;;;;;;;6.00;3.53;;;;;;;12.88;90.97;99006.31;5113205;28;20062;-86
2022/09/02 01:38:32;;;;;;;3.67;2.72;;;;;;;12.82;91.58;99004.38;5112026;27;20112;-86
2022/09/02 01:41:00;;;;;;;3.20;2.80;;;;;;;12.74;92.76;99005.41;5113618;28;20062;-86
2022/09/02 01:43:28;;;;;;;3.47;2.72;;;;;;;12.66;93.04;98994.69;5112667;28;20043;-86
2022/09/02 01:45:57;;;;;;;6.80;3.25;;;;;;;12.66;94.07;99005.59;5112866;28;20054;-86
2022/09/02 01:48:24;;;;;;;7.77;3.07;;;;;;;12.61;93.98;99001.78;5113305;28;20134;-86
2022/09/02 01:50:56;;;;;;;3.92;3.00;;;;;;;12.47;93.94;99004.44;5110764;28;20046;-86
2022/09/02 01:53:23;;;;;;;4.10;3.08;;;;;;;12.48;94.33;99003.41;5111568;28;20402;-85
2022/09/02 01:55:50;;;;;;;3.60;3.22;;;;;;;12.60;93.66;99002.81;5112595;28;20043;-85
2022/09/02 01:58:19;;;;;;;5.60;3.00;;;;;;;12.62;93.22;99008.94;5113155;28;20092;-85
2022/09/02 02:00:46;;;;;;;5.60;3.10;;;;;;;12.50;94.17;99014.94;5112903;28;20473;-86
2022/09/02 02:03:13;;;;;;;3.47;2.88;;;;;;;12.46;94.66;99015.53;5111088;28;20074;-86
2022/09/02 02:05:40;;;;;;;3.33;3.03;;;;;;;12.30;94.90;98998.47;5110792;28;20092;-85
2022/09/02 02:08:06;;;;;;;4.32;3.17;;;;;;;12.15;96.04;98993.13;5112598;28;20096;-85
2022/09/02 02:10:33;;;;;;;3.55;2.97;;;;;;;12.14;96.09;98996.91;5112703;28;20043;-86
2022/09/02 02:13:00;;;;;;;6.15;3.22;;;;;;;12.12;95.74;98990.81;5111869;28;20051;-86
2022/09/02 02:15:29;;;;;;;6.53;3.25;;;;;;;11.97;96.27;98996.34;5112677;28;20062;-85
2022/09/02 02:17:56;;;;;;;4.55;3.22;;;;;;;12.00;97.16;99019.66;5110932;28;20040;-86
2022/09/02 02:20:23;;;;;;;3.92;3.08;;;;;;;11.81;97.98;99002.91;5112148;28;20085;-86
2022/09/02 02:22:50;;;;;;;3.25;2.95;;;;;;;11.68;97.89;98984.59;5111855;28;20048;-86
2022/09/02 02:25:17;;;;;;;4.68;3.10;;;;;;;11.82;98.49;99001.88;5111718;28;20051;-86
2022/09/02 02:27:44;;;;;;;3.47;3.17;;;;;;;11.74;99.90;99012.88;5112366;28;20047;-85
2022/09/02 02:30:15;;;;;;;3.80;3.15;;;;;;;11.61;100.00;98997.28;5111964;28;20055;-85
2022/09/02 02:32:45;;;;;;;5.07;3.75;;;;;;;11.70;99.24;99006.16;5109540;28;20048;-86
2022/09/02 02:35:13;;;;;;;3.60;2.97;;;;;;;11.57;99.94;99009.59;5111078;28;20047;-86
2022/09/02 02:37:41;;;;;;;7.82;3.17;;;;;;;11.61;100.00;99012.78;5112256;28;20074;-85
2022/09/02 02:40:10;;;;;;;4.85;3.30;;;;;;;11.58;100.00;99016.75;5112330;28;20051;-86
2022/09/02 02:42:38;;;;;;;3.75;2.70;;;;;;;11.52;100.00;98991.13;5111498;28;20072;-86
2022/09/02 02:45:07;;;;;;;5.22;3.40;;;;;;;11.54;100.00;98987.38;5111858;27;20055;-85
2022/09/02 02:47:34;;;;;;;3.55;2.95;;;;;;;11.52;100.00;98996.56;5110095;28;20637;-86
2022/09/02 02:50:06;;;;;;;4.00;3.25;;;;;;;11.45;100.00;98994.84;5112291;28;20057;-86
2022/09/02 02:52:32;;;;;;;4.00;3.17;;;;;;;11.24;100.00;99012.00;5103474;28;20104;-86
2022/09/02 02:54:59;;;;;;;4.65;3.40;;;;;;;11.21;100.00;99005.06;5112091;28;20108;-85
2022/09/02 02:57:29;;;;;;;3.15;2.85;;;;;;;11.12;100.00;99003.50;5111487;28;20575;-84
2022/09/02 02:59:56;;;;;;;3.63;3.05;;;;;;;10.97;100.00;98981.78;5111900;28;20055;-86
2022/09/02 03:02:23;;;;;;;2.95;2.67;;;;;;;11.15;100.00;99001.25;5109745;28;20040;-85
2022/09/02 03:04:53;;;;;;;4.22;3.25;;;;;;;11.06;100.00;98987.94;5110011;28;20051;-86
2022/09/02 03:07:21;;;;;;;5.20;3.80;;;;;;;11.06;100.00;98986.06;5111485;28;20052;-85
2022/09/02 03:09:47;;;;;;;3.45;3.10;;;;;;;11.05;100.00;98981.66;5112161;28;20059;-85
2022/09/02 03:12:15;;;;;;;5.15;2.90;;;;;;;11.03;100.00;98982.88;5110752;28;20052;-85
2022/09/02 03:14:42;;;;;;;5.57;3.10;;;;;;;11.13;100.00;98994.31;5111253;27;20521;-86
2022/09/02 03:17:09;;;;;;;6.25;3.47;;;;;;;11.06;100.00;98985.22;5110511;28;20047;-85
2022/09/02 03:19:36;;;;;;;4.90;3.15;;;;;;;11.10;100.00;98994.69;5111266;28;20050;-86
2022/09/02 03:22:04;;;;;;;3.55;2.80;;;;;;;10.96;100.00;98983.66;5111019;28;20048;-85
2022/09/02 03:24:32;;;;;;;5.45;2.88;;;;;;;10.90;100.00;98976.28;5110924;27;20059;-85
2022/09/02 03:26:59;;;;;;;4.88;3.20;;;;;;;10.98;100.00;98997.91;5111310;28;20054;-85
2022/09/02 03:29:26;;;;;;;3.28;2.80;;;;;;;10.91;100.00;98985.25;5111423;28;20455;-86
2022/09/02 03:31:52;;;;;;;3.28;2.97;;;;;;;10.97;100.00;98979.06;5108701;28;20613;-86
2022/09/02 03:34:20;;;;;;;3.35;2.85;;;;;;;11.07;100.00;98997.81;5110746;28;20471;-85
2022/09/02 03:36:47;;;;;;;4.13;3.05;;;;;;;11.09;100.00;99002.00;5103747;28;20082;-86
2022/09/02 03:39:14;;;;;;;4.85;3.20;;;;;;;11.15;100.00;98994.94;5111711;28;20050;-85
2022/09/02 03:41:43;;;;;;;3.95;3.05;;;;;;;11.00;100.00;98981.38;5102811;28;20040;-85
2022/09/02 03:44:10;;;;;;;5.50;3.13;;;;;;;10.98;100.00;98975.31;5109547;27;20047;-85
2022/09/02 03:46:37;;;;;;;4.00;3.17;;;;;;;10.90;100.00;98986.28;5092326;28;20492;-86
2022/09/02 03:49:04;;;;;;;5.38;3.42;;;;;;;10.80;100.00;98992.03;5111105;28;20498;-85
2022/09/02 03:51:34;;;;;;;5.47;3.13;;;;;;;10.92;100.00;98984.25;5110865;28;20040;-85
2022/09/02 03:54:02;;;;;;;4.80;3.40;;;;;;;10.88;100.00;98988.38;5110301;28;20049;-85
2022/09/02 03:56:29;;;;;;;3.90;3.40;;;;;;;10.86;100.00;98974.13;5110687;28;20570;-85
2022/09/02 03:58:57;;;;;;;4.80;3.25;;;;;;;10.99;100.00;98996.03;5110352;28;20066;-85
2022/09/02 04:01:25;;;;;;;4.13;3.30;;;;;;;10.98;100.00;98997.91;5111010;28;20440;-85
2022/09/02 04:03:53;;;;;;;4.22;3.08;;;;;;;10.87;100.00;98979.38;5110076;28;20505;-85
2022/09/02 04:06:22;;;;;;;4.45;3.55;;;;;;;10.93;100.00;98996.78;5109361;28;20050;-85
2022/09/02 04:08:49;;;;;;;4.93;3.45;;;;;;;10.95;100.00;98979.25;5110803;28;20055;-85
2022/09/02 04:11:19;;;;;;;6.60;3.83;;;;;;;10.97;100.00;98969.03;5111053;28;20043;-85
2022/09/02 04:13:46;;;;;;;7.63;3.80;;;;;;;11.03;100.00;98977.44;5109282;28;20067;-85
2022/09/02 04:16:19;;;;;;;5.07;3.40;;;;;;;11.06;100.00;98986.06;5114006;28;20056;-85
2022/09/02 04:18:46;;;;;;;5.32;3.60;;;;;;;10.93;100.00;98980.47;5114695;28;20066;-85
2022/09/02 04:21:13;;;;;;;8.40;3.75;;;;;;;10.92;100.00;98982.34;5114607;28;20075;-85
2022/09/02 04:23:40;;;;;;;6.65;3.88;;;;;;;10.97;100.00;98982.63;5113802;27;20044;-85
2022/09/02 04:26:10;;;;;;;6.03;3.75;;;;;;;10.95;100.00;98973.81;5114657;28;20046;-85
2022/09/02 04:28:37;;;;;;;4.38;3.33;;;;;;;10.94;100.00;98980.31;5112729;28;20495;-85
2022/09/02 04:31:04;;;;;;;4.70;3.20;;;;;;;10.97;100.00;98982.63;5114663;28;20053;-85
2022/09/02 04:33:33;;;;;;;5.20;2.95;;;;;;;11.00;100.00;98996.88;5113741;28;20056;-85
2022/09/02 04:35:59;;;;;;;6.43;3.35;;;;;;;10.94;100.00;98985.75;5106637;28;20048;-86
2022/09/02 04:38:27;;;;;;;3.75;3.20;;;;;;;11.06;100.00;98982.50;5114249;28;20035;-85
2022/09/02 04:40:54;;;;;;;4.50;3.13;;;;;;;11.06;100.00;98982.50;5113641;28;20073;-86
2022/09/02 04:43:23;;;;;;;6.20;3.60;;;;;;;10.92;100.00;98976.06;5113326;28;20074;-85
2022/09/02 04:45:50;;;;;;;4.78;3.38;;;;;;;10.92;100.00;98978.81;5114340;28;20046;-85
2022/09/02 04:48:18;;;;;;;5.90;3.75;;;;;;;10.92;100.00;98968.75;5114226;28;20092;-86
2022/09/02 04:50:46;;;;;;;4.32;3.03;;;;;;;11.00;100.00;98975.13;5114456;28;20054;-85
2022/09/02 04:53:13;;;;;;;3.88;3.15;;;;;;;10.91;100.00;98975.22;5113410;28;20119;-85
2022/09/02 04:55:41;;;;;;;5.78;3.20;;;;;;;11.05;100.00;98975.38;5113006;28;20055;-85
2022/09/02 04:58:08;;;;;;;3.25;2.92;;;;;;;11.12;100.00;98963.50;5110577;28;20042;-85
2022/09/02 05:00:36;;;;;;;3.20;2.90;;;;;;;11.30;100.00;98973.13;5114056;28;20040;-86
2022/09/02 05:03:04;;;;;;;6.05;2.95;;;;;;;11.54;100.00;98980.03;5113250;28;20044;-85
2022/09/02 05:05:31;;;;;;;4.93;2.70;;;;;;;11.71;100.00;98971.59;5111887;28;20066;-85
2022/09/02 05:07:59;;;;;;;3.30;2.53;;;;;;;11.83;100.00;98970.00;5113973;28;20127;-85
2022/09/02 05:10:27;;;;;;;4.18;2.65;;;;;;;12.07;99.98;98976.94;5112612;28;20521;-85
2022/09/02 05:12:54;;;;;;;3.20;2.72;;;;;;;12.09;98.30;98961.25;5112358;28;20295;-85
2022/09/02 05:15:21;;;;;;;3.10;2.40;;;;;;;12.17;98.23;98969.25;5113818;28;20040;-85
2022/09/02 05:17:48;;;;;;;4.60;2.72;;;;;;;12.24;97.53;98968.44;5113990;28;20055;-86
2022/09/02 05:20:14;;;;;;;2.65;2.17;;;;;;;12.36;96.67;98973.13;5113760;28;20071;-85
2022/09/02 05:22:42;;;;;;;5.82;2.50;;;;;;;12.43;95.43;98973.16;5112885;28;20051;-85
2022/09/02 05:25:10;;;;;;;2.83;2.22;;;;;;;12.49;95.16;98980.53;5112104;28;20043;-85
2022/09/02 05:27:38;;;;;;;5.47;2.40;;;;;;;12.46;95.72;98978.22;5112984;28;20050;-85
2022/09/02 05:30:05;;;;;;;3.28;2.25;;;;;;;12.47;95.12;98962.72;5112848;28;20232;-86
2022/09/02 05:32:32;;;;;;;3.08;2.65;;;;;;;12.63;94.71;98981.47;5112692;28;20039;-85
2022/09/02 05:34:58;;;;;;;2.85;2.22;;;;;;;12.58;93.98;98962.13;5113292;27;20052;-85
2022/09/02 05:37:25;;;;;;;4.63;2.75;;;;;;;12.63;93.22;98965.09;5113507;28;20139;-86
2022/09/02 05:39:52;;;;;;;6.80;2.35;;;;;;;12.66;93.34;98961.09;5111704;28;20078;-86
2022/09/02 05:42:21;;;;;;;2.38;2.10;;;;;;;12.72;92.72;98969.31;5112884;28;20096;-86
2022/09/02 05:44:50;;;;;;;2.55;2.17;;;;;;;12.79;92.36;98973.97;5113299;28;20116;-85
2022/09/02 05:47:17;;;;;;;2.80;2.00;;;;;;;12.95;92.08;98975.47;5104776;28;20399;-86
2022/09/02 05:49:44;;;;;;;3.45;2.05;;;;;;;12.93;91.82;98983.84;5113297;28;20112;-85
2022/09/02 05:52:13;;;;;;;3.63;2.42;;;;;;;13.14;90.46;98979.31;5112297;28;20040;-86
2022/09/02 05:54:40;;;;;;;3.78;2.35;;;;;;;13.33;89.21;98978.50;5112303;28;20075;-86
2022/09/02 05:57:10;;;;;;;5.35;2.38;;;;;;;13.63;87.46;98981.72;5112751;28;20055;-86
2022/09/02 05:59:41;;;;;;;2.78;2.22;;;;;;;13.97;83.97;98954.38;5112551;28;20130;-86
2022/09/02 06:02:08;;;;;;;4.95;2.25;;;;;;;14.60;80.40;98972.13;5112138;28;20055;-86
2022/09/02 06:04:38;;;;;;;7.72;2.17;;;;;;;14.77;78.92;98970.63;5112871;28;20051;-85
2022/09/02 06:07:05;;;;;;;3.38;2.28;;;;;;;14.75;78.29;98958.22;5110693;27;20050;-86
2022/09/02 06:09:32;;;;;;;2.50;1.98;;;;;;;15.00;77.53;98972.00;5111374;28;20092;-86
2022/09/02 06:11:59;;;;;;;4.38;2.10;;;;;;;14.98;77.46;98965.88;5112469;28;20482;-86
2022/09/02 06:14:26;;;;;;;4.57;1.65;;;;;;;14.94;77.07;98961.94;5112265;28;20056;-86
2022/09/02 06:16:57;;;;;;;3.95;1.90;;;;;;;14.96;77.00;98966.09;5112591;28;20044;-85
2022/09/02 06:19:25;;;;;;;3.67;1.92;;;;;;;15.21;76.08;98970.81;5104330;28;20419;-85
2022/09/02 06:21:53;;;;;;;4.07;2.40;;;;;;;15.82;73.15;98966.63;5109729;28;20050;-86
2022/09/02 06:24:19;;;;;;;1.92;1.65;;;;;;;16.33;70.38;98975.63;5111492;28;20053;-86
2022/09/02 06:26:46;;;;;;;2.95;2.05;;;;;;;16.92;67.83;98975.19;5111795;28;20044;-86
2022/09/02 06:29:13;;;;;;;5.28;1.70;;;;;;;16.70;67.56;98970.16;5112145;28;20048;-85
2022/09/02 06:31:41;;;;;;;2.47;1.80;;;;;;;17.05;66.86;98976.94;5112492;28;20050;-86
2022/09/02 06:34:13;;;;;;;3.25;2.10;;;;;;;17.09;66.41;98972.66;5093083;28;20051;-85
2022/09/02 06:36:41;;;;;;;2.15;1.77;;;;;;;17.13;65.42;98968.34;5107883;28;20047;-86
2022/09/02 06:39:10;;;;;;;10.95;1.90;;;;;;;16.83;65.40;98971.91;5111150;28;20040;-85
2022/09/02 06:41:39;;;;;;;2.15;1.70;;;;;;;17.27;65.08;98969.03;5112175;28;20491;-85
2022/09/02 06:44:08;;;;;;;3.55;1.77;;;;;;;17.46;63.46;98958.78;5111805;27;20048;-87
2022/09/02 06:46:37;;;;;;;3.38;1.60;;;;;;;17.77;63.35;98971.41;5104358;28;20058;-86
2022/09/02 06:49:08;;;;;;;2.42;1.90;;;;;;;17.89;62.30;98973.34;5112503;28;20127;-86
2022/09/02 06:51:39;;;;;;;3.33;1.83;;;;;;;18.08;61.36;98949.34;5110181;28;20055;-86
2022/09/02 06:54:09;;;;;;;4.00;1.58;;;;;;;18.11;61.09;98966.22;5111544;28;20079;-87
2022/09/02 06:56:37;;;;;;;1.92;1.70;;;;;;;18.14;60.89;98971.25;5104030;28;20051;-87
2022/09/02 06:59:07;;;;;;;4.03;1.67;;;;;;;17.99;61.01;98977.22;5112200;28;20051;-87
2022/09/02 07:01:36;;;;;;;4.95;1.85;;;;;;;17.92;60.94;98979.25;5111464;28;20047;-86
2022/09/02 07:06:54;;;;;;;3.22;1.73;;;;;;;18.03;60.47;98958.31;5109726;28;20070;-85
2022/09/02 07:09:29;;;;;;;3.40;1.58;;;;;;;18.15;60.88;98978.41;5111392;28;20040;-86
2022/09/02 07:12:00;;;;;;;2.42;1.70;;;;;;;18.02;60.95;98954.75;5111514;27;20054;-85
2022/09/02 07:14:30;;;;;;;2.42;1.77;;;;;;;18.17;60.90;98969.91;5110789;28;20051;-86
2022/09/02 07:16:58;;;;;;;2.30;1.58;;;;;;;18.45;59.78;98955.41;5108040;28;20040;-86
2022/09/02 07:19:25;;;;;;;3.28;2.15;;;;;;;18.25;59.52;98961.31;5116439;28;20044;-85
2022/09/02 07:21:54;;;;;;;2.95;1.90;;;;;;;18.17;59.74;98965.28;5114680;28;20130;-85
2022/09/02 07:24:20;;;;;;;3.58;1.70;;;;;;;18.10;60.33;98972.78;5112339;28;20499;-85
2022/09/02 07:26:48;;;;;;;1.83;1.40;;;;;;;18.29;60.03;98954.25;5112755;28;20131;-85
2022/09/02 07:29:15;;;;;;;3.17;1.60;;;;;;;18.35;59.81;98964.31;5111851;28;20104;-86
2022/09/02 07:31:48;;;;;;;3.75;1.60;;;;;;;18.10;59.21;98959.03;5108794;28;20049;-87
2022/09/02 07:34:16;;;;;;;1.98;1.67;;;;;;;17.89;60.26;98943.97;5110012;28;20051;-86
2022/09/02 07:36:44;;;;;;;1.83;1.23;;;;;;;18.10;60.63;98953.53;5110330;28;20043;-86
2022/09/02 07:39:14;;;;;;;2.90;1.63;;;;;;;18.06;60.61;98954.25;5110995;28;20043;-86
2022/09/02 07:41:46;;;;;;;1.90;1.27;;;;;;;18.27;59.74;98944.56;5111011;28;20056;-85
2022/09/02 07:44:14;;;;;;;1.85;1.52;;;;;;;18.16;59.25;98933.31;5109123;28;20043;-86
2022/09/02 07:46:41;;;;;;;3.30;1.70;;;;;;;18.16;59.34;98938.81;5110374;28;20043;-86
2022/09/02 07:49:10;;;;;;;5.18;1.63;;;;;;;18.35;59.66;98955.19;5111601;28;20282;-85
2022/09/02 07:51:40;;;;;;;11.55;4.10;;;;;;;18.42;58.58;98935.81;5113572;28;20048;-86
2022/09/02 07:54:09;;;;;;;3.25;1.58;;;;;;;18.46;58.29;98948.84;5114354;28;20398;-84
2022/09/02 07:56:37;;;;;;;1.55;1.20;;;;;;;18.66;58.15;98951.19;5114848;28;20516;-85
2022/09/02 07:59:04;;;;;;;2.08;1.30;;;;;;;18.85;57.97;98943.63;5114980;28;20092;-85
2022/09/02 08:01:33;;;;;;;1.60;1.35;;;;;;;18.95;57.41;98951.25;5113559;28;20047;-85
2022/09/02 08:03:59;;;;;;;1.70;1.52;;;;;;;19.08;57.42;98950.97;5112448;28;20510;-85
2022/09/02 08:06:27;;;;;;;1.58;1.23;;;;;;;19.12;56.77;98942.22;5112183;28;20398;-85
2022/09/02 08:08:54;;;;;;;2.83;1.40;;;;;;;19.16;56.17;98944.22;5106594;28;20047;-85
2022/09/02 08:11:24;;;;;;;1.48;1.38;;;;;;;19.18;55.68;98946.72;5114693;28;20123;-83
2022/09/02 08:13:52;;;;;;;4.63;1.73;;;;;;;19.29;55.70;98937.59;5113847;27;20055;-85
2022/09/02 08:16:19;;;;;;;3.55;1.50;;;;;;;19.25;55.27;98939.16;5113027;28;20100;-85
2022/09/02 08:18:47;;;;;;;5.30;1.30;;;;;;;19.26;55.71;98922.38;5114644;28;20050;-85
2022/09/02 08:21:14;;;;;;;8.52;1.48;;;;;;;19.41;55.22;98932.84;5114635;28;20039;-86
2022/09/02 08:23:49;;;;;;;2.50;1.20;;;;;;;19.59;55.20;98940.03;5113464;28;20047;-85
2022/09/02 08:26:16;;;;;;;2.70;1.25;;;;;;;19.53;53.95;98949.31;5114795;28;20536;-85
2022/09/02 08:28:43;;;;;;;2.17;1.30;;;;;;;19.30;55.41;98930.13;5113053;28;20047;-84
2022/09/02 08:31:11;;;;;;;2.30;1.20;;;;;;;19.42;53.85;98941.94;5114071;28;20349;-87
2022/09/02 08:33:38;;;;;;;2.65;1.15;;;;;;;19.40;53.64;98946.88;5113298;27;20058;-84
2022/09/02 08:36:07;;;;;;;1.25;1.10;;;;;;;19.54;54.00;98933.59;5114015;28;20127;-85
2022/09/02 08:38:36;;;;;;;1.20;1.00;;;;;;;19.56;53.19;98928.69;5114352;27;20035;-85
2022/09/02 08:41:12;;;;;;;3.90;1.38;;;;;;;19.77;52.13;98938.13;5106211;28;20420;-85
2022/09/02 08:43:42;;;;;;;3.38;0.93;;;;;;;19.96;49.66;98917.50;5112211;28;20117;-85
2022/09/02 08:46:15;;;;;;;7.25;1.20;;;;;;;20.07;48.28;98932.28;5107491;28;20048;-85
2022/09/02 08:48:48;;;;;;;4.18;0.90;;;;;;;19.97;47.69;98910.06;5112382;28;20475;-85
2022/09/02 08:51:20;;;;;;;9.07;0.98;;;;;;;20.25;47.84;98924.81;5113640;28;20088;-85
2022/09/02 08:53:53;;;;;;;3.05;0.80;;;;;;;20.42;47.75;98922.03;5112550;28;20051;-84
2022/09/02 08:56:20;;;;;;;4.00;0.73;;;;;;;20.36;47.18;98921.09;5111481;28;20403;-85
2022/09/02 08:58:52;;;;;;;1.98;0.95;;;;;;;20.33;47.19;98908.66;5111808;28;20107;-84
2022/09/02 09:01:29;;;;;;;8.02;1.15;;;;;;;20.50;46.94;98921.56;5112459;28;20044;-84
2022/09/02 09:04:16;;;;;;;1.20;0.95;;;;;;;20.56;46.60;98928.00;5112991;28;20059;-87
2022/09/02 09:06:55;;;;;;;4.25;1.10;;;;;;;20.50;45.96;98933.47;5111647;28;20055;-84
2022/09/02 09:09:30;;;;;;;5.15;0.98;;;;;;;20.59;46.18;98911.75;5105624;28;20483;-85
2022/09/02 09:12:06;;;;;;;2.85;0.70;;;;;;;20.74;45.46;98918.59;5113105;27;20048;-84
2022/09/02 09:14:39;;;;;;;2.95;0.80;;;;;;;20.64;45.04;98902.69;5113016;28;20050;-84
2022/09/02 09:17:14;;;;;;;1.58;0.95;;;;;;;20.77;45.06;98913.38;5113508;28;20928;-85
2022/09/02 09:19:48;;;;;;;4.95;1.00;;;;;;;20.74;44.60;98900.06;5112774;28;20044;-85
2022/09/02 09:22:19;;;;;;;5.07;1.00;;;;;;;20.94;44.72;98898.63;5109416;28;20070;-85
2022/09/02 09:24:47;;;;;;;4.53;0.80;;;;;;;21.02;43.76;98918.38;5110373;28;20104;-85
2022/09/02 09:27:17;;;;;;;1.58;0.90;;;;;;;20.75;43.55;98893.47;5111993;28;20052;-85
2022/09/02 09:29:44;;;;;;;1.35;0.93;;;;;;;20.86;44.01;98895.25;5112991;28;20513;-85
2022/09/02 09:32:21;;;;;;;3.72;0.93;;;;;;;20.96;43.32;98894.53;5111952;28;20583;-84
2022/09/02 09:35:00;;;;;;;1.33;0.80;;;;;;;21.26;43.32;98901.47;5112778;28;20068;-85
2022/09/02 09:37:32;;;;;;;0.80;0.80;;;;;;;21.07;43.12;98887.19;5112185;28;20043;-85
2022/09/02 09:39:59;;;;;;;3.03;1.02;;;;;;;21.01;42.23;98874.41;5112846;27;20486;-86
2022/09/02 09:42:35;;;;;;;2.17;1.00;;;;;;;21.04;42.84;98885.75;5104414;28;20044;-84
2022/09/02 09:45:18;;;;;;;2.53;0.90;;;;;;;21.24;40.74;98887.06;5112648;28;20044;-85
2022/09/02 09:48:10;;;;;;;2.35;0.88;;;;;;;21.33;41.35;98885.50;5112254;28;20056;-85
2022/09/02 09:50:38;;;;;;;2.58;1.08;;;;;;;21.39;41.30;98886.38;5110786;28;20079;-85
2022/09/02 09:53:24;;;;;;;8.30;0.82;;;;;;;21.44;40.58;98877.28;5110975;28;20068;-84
2022/09/02 09:55:53;;;;;;;4.13;0.93;;;;;;;21.65;40.33;98881.09;5112386;27;20048;-85
2022/09/02 09:58:22;;;;;;;1.85;0.73;;;;;;;21.89;40.45;98876.03;5112058;28;20711;-84
2022/09/02 10:00:55;;;;;;;3.20;1.00;;;;;;;22.05;39.19;98883.31;5112229;28;20048;-84
2022/09/02 10:03:28;;;;;;;2.28;0.70;;;;;;;21.96;39.18;98859.19;5110035;28;20048;-84
2022/09/02 10:05:57;;;;;;;3.42;0.85;;;;;;;21.84;38.86;98864.91;5107727;28;20044;-84
2022/09/02 10:08:26;;;;;;;1.27;0.70;;;;;;;22.03;38.28;98877.22;5112030;28;20047;-84
2022/09/02 10:10:58;;;;;;;3.75;0.82;;;;;;;21.94;39.18;98872.47;5111336;28;20130;-84
2022/09/02 10:13:28;;;;;;;2.90;1.00;;;;;;;22.21;38.78;98875.94;5109481;28;20560;-85
2022/09/02 10:16:07;;;;;;;2.22;0.98;;;;;;;22.16;36.62;98878.69;5112199;28;20108;-85
2022/09/02 10:18:41;;;;;;;0.75;0.70;;;;;;;22.11;37.26;98853.72;5113323;28;20053;-84
2022/09/02 10:21:21;;;;;;;1.00;0.73;;;;;;;22.12;38.07;98862.88;5112001;28;20290;-83
2022/09/02 10:23:57;;;;;;;6.40;1.02;;;;;;;22.02;37.18;98847.84;5103957;28;20044;-84
2022/09/02 10:26:33;;;;;;;1.20;0.75;;;;;;;22.20;37.52;98852.13;5107907;28;20044;-84
2022/09/02 10:29:33;;;;;;;1.85;0.60;;;;;;;22.37;35.65;98846.44;5104020;28;20044;-84
2022/09/02 10:32:21;;;;;;;0.93;0.68;;;;;;;22.59;35.76;98860.06;5111457;28;20122;-84
2022/09/02 10:35:01;;;;;;;1.20;0.70;;;;;;;22.45;34.45;98864.47;5111429;28;20134;-84
2022/09/02 10:37:36;;;;;;;2.50;0.70;;;;;;;22.44;34.79;98866.38;5111704;28;20043;-84
2022/09/02 10:40:12;;;;;;;0.50;0.50;;;;;;;22.59;35.05;98850.94;5110034;28;20039;-84
2022/09/02 10:43:00;;;;;;;0.70;0.68;;;;;;;22.57;33.89;98842.06;5110892;28;20514;-85
2022/09/02 10:45:34;;;;;;;5.88;0.65;;;;;;;22.51;34.24;98851.47;5104082;28;20053;-84
2022/09/02 10:48:16;;;;;;;5.32;0.80;;;;;;;22.91;34.42;98845.22;5109807;28;20130;-84
2022/09/02 10:50:52;;;;;;;2.13;0.80;;;;;;;22.85;34.50;98828.84;5111368;28;20054;-84
2022/09/02 10:53:38;;;;;;;1.98;0.70;;;;;;;23.07;33.72;98829.44;5105280;28;20048;-84
2022/09/02 10:56:09;;;;;;;1.00;0.80;;;;;;;23.04;33.32;98838.28;5111013;28;20051;-84
2022/09/02 10:58:42;;;;;;;2.45;0.70;;;;;;;22.98;33.21;98822.78;5111523;28;20044;-85
2022/09/02 11:01:15;;;;;;;2.28;0.75;;;;;;;23.13;33.42;98816.44;5111044;28;20151;-85
2022/09/02 11:03:58;;;;;;;2.38;1.40;;;;;;;23.25;34.24;98816.19;5110440;28;20510;-83
2022/09/02 11:06:29;;;;;;;0.70;0.63;;;;;;;23.20;34.37;98810.63;5108834;28;20051;-83
2022/09/02 11:09:01;;;;;;;1.98;1.00;;;;;;;23.40;34.00;98805.06;5106418;28;20062;-83
2022/09/02 11:11:32;;;;;;;1.75;0.60;;;;;;;23.42;33.05;98808.38;5109142;28;20134;-83
2022/09/02 11:14:07;;;;;;;0.88;0.70;;;;;;;23.38;32.50;98803.69;5105514;28;20066;-83
2022/09/02 11:16:38;;;;;;;2.08;1.08;;;;;;;23.46;32.93;98806.72;5110647;28;20052;-84
2022/09/02 11:19:13;;;;;;;1.75;0.63;;;;;;;23.34;32.93;98803.41;5111508;28;20043;-84
2022/09/02 11:21:52;;;;;;;0.93;0.88;;;;;;;23.46;33.30;98808.69;5110897;28;20039;-84
2022/09/02 11:24:26;;;;;;;2.25;0.88;;;;;;;23.43;33.54;98801.75;5108532;28;20149;-84
2022/09/02 11:26:59;;;;;;;5.90;0.68;;;;;;;23.52;32.38;98773.47;5110129;28;20131;-84
2022/09/02 11:29:36;;;;;;;1.27;0.55;;;;;;;23.82;32.72;98797.53;5110327;28;20213;-85
2022/09/02 11:32:12;;;;;;;3.13;0.60;;;;;;;23.78;33.10;98769.50;5103379;28;20049;-84
2022/09/02 11:34:45;;;;;;;2.45;1.00;;;;;;;23.89;31.97;98792.53;5110471;28;20525;-83
2022/09/02 11:37:26;;;;;;;2.25;0.60;;;;;;;23.61;32.74;98767.03;5110031;28;20043;-84
2022/09/02 11:39:58;;;;;;;6.75;0.82;;;;;;;23.83;32.21;98775.03;5110417;27;20044;-84
2022/09/02 11:42:40;;;;;;;1.60;0.90;;;;;;;23.99;31.37;98775.84;5110097;28;20057;-84
2022/09/02 11:45:23;;;;;;;2.83;0.68;;;;;;;24.09;31.53;98771.38;5110907;28;20126;-84
2022/09/02 11:48:21;;;;;;;0.55;0.47;;;;;;;24.31;30.99;98782.94;5110538;28;20051;-83